sensor_id;sensor_type;location;lat;lon;timestamp;pressure;altitude;pressure_sealevel;temperature;humidity
2294;BME280;1155;42.644;23.264;2023-05-23T00:01:04;60204.03;;;-140.67;100.00
2294;BME280;1155;42.644;23.264;2023-05-23T00:03:32;60226.56;;;-140.67;100.00
2294;BME280;1155;42.644;23.264;2023-05-23T00:05:59;60202.00;;;-140.67;100.00
2294;BME280;1155;42.644;23.264;2023-05-23T00:08:26;60232.72;;;-140.67;100.00
2294;BME280;1155;42.644;23.264;2023-05-23T00:10:53;60214.28;;;-140.67;100.00
2294;BME280;1155;42.644;23.264;2023-05-23T00:13:21;60220.41;;;-140.67;100.00
2294;BME280;1155;42.644;23.264;2023-05-23T00:15:48;60220.41;;;-140.67;100.00
2294;BME280;1155;42.644;23.264;2023-05-23T00:18:15;60218.38;;;-140.67;100.00
2294;BME280;1155;42.644;23.264;2023-05-23T00:20:42;60226.56;;;-140.67;100.00
2294;BME280;1155;42.644;23.264;2023-05-23T00:23:09;60232.72;;;-140.67;100.00
2294;BME280;1155;42.644;23.264;2023-05-23T00:25:43;60234.75;;;-140.67;100.00
2294;BME280;1155;42.644;23.264;2023-05-23T00:28:13;60216.31;;;-140.67;100.00
2294;BME280;1155;42.644;23.264;2023-05-23T00:30:41;60230.66;;;-140.67;100.00
2294;BME280;1155;42.644;23.264;2023-05-23T00:33:08;60204.03;;;-140.67;100.00
2294;BME280;1155;42.644;23.264;2023-05-23T00:35:38;60216.31;;;-140.67;100.00
2294;BME280;1155;42.644;23.264;2023-05-23T00:38:05;60240.91;;;-140.67;100.00
2294;BME280;1155;42.644;23.264;2023-05-23T00:40:33;60216.31;;;-140.67;100.00
2294;BME280;1155;42.644;23.264;2023-05-23T00:43:00;60224.53;;;-140.67;100.00
2294;BME280;1155;42.644;23.264;2023-05-23T00:45:27;60245.00;;;-140.67;100.00
2294;BME280;1155;42.644;23.264;2023-05-23T00:47:55;60212.22;;;-140.67;100.00
2294;BME280;1155;42.644;23.264;2023-05-23T00:50:23;60232.72;;;-140.67;100.00
2294;BME280;1155;42.644;23.264;2023-05-23T00:52:54;60216.31;;;-140.67;100.00
2294;BME280;1155;42.644;23.264;2023-05-23T00:55:22;60216.31;;;-140.67;100.00
2294;BME280;1155;42.644;23.264;2023-05-23T00:57:50;60206.09;;;-140.67;100.00
2294;BME280;1155;42.644;23.264;2023-05-23T01:00:20;60220.41;;;-140.67;100.00
2294;BME280;1155;42.644;23.264;2023-05-23T01:02:49;60216.31;;;-140.67;100.00
2294;BME280;1155;42.644;23.264;2023-05-23T01:05:18;60234.75;;;-140.67;100.00
2294;BME280;1155;42.644;23.264;2023-05-23T01:07:47;60238.84;;;-140.67;100.00
2294;BME280;1155;42.644;23.264;2023-05-23T01:10:15;60232.72;;;-140.67;100.00
2294;BME280;1155;42.644;23.264;2023-05-23T01:12:53;60226.56;;;-140.67;100.00
2294;BME280;1155;42.644;23.264;2023-05-23T01:25:38;60253.19;;;-140.67;100.00
2294;BME280;1155;42.644;23.264;2023-05-23T01:28:16;60240.91;;;-140.67;100.00
2294;BME280;1155;42.644;23.264;2023-05-23T01:30:45;60210.19;;;-140.67;100.00
2294;BME280;1155;42.644;23.264;2023-05-23T01:33:15;60228.63;;;-140.67;100.00
2294;BME280;1155;42.644;23.264;2023-05-23T01:35:42;60249.09;;;-140.67;100.00
2294;BME280;1155;42.644;23.264;2023-05-23T01:38:09;60226.56;;;-140.67;100.00
2294;BME280;1155;42.644;23.264;2023-05-23T01:40:36;60234.75;;;-140.67;100.00
2294;BME280;1155;42.644;23.264;2023-05-23T01:43:03;60214.28;;;-140.67;100.00
2294;BME280;1155;42.644;23.264;2023-05-23T01:45:32;60214.28;;;-140.67;100.00
2294;BME280;1155;42.644;23.264;2023-05-23T01:48:00;60242.94;;;-140.67;100.00
2294;BME280;1155;42.644;23.264;2023-05-23T01:50:28;60222.47;;;-140.67;100.00
2294;BME280;1155;42.644;23.264;2023-05-23T01:52:59;60257.28;;;-140.67;100.00
2294;BME280;1155;42.644;23.264;2023-05-23T01:55:29;60242.94;;;-140.67;100.00
2294;BME280;1155;42.644;23.264;2023-05-23T01:57:56;60212.22;;;-140.67;100.00
2294;BME280;1155;42.644;23.264;2023-05-23T02:00:25;60228.63;;;-140.67;100.00
2294;BME280;1155;42.644;23.264;2023-05-23T02:02:53;60245.00;;;-140.67;100.00
2294;BME280;1155;42.644;23.264;2023-05-23T02:05:20;60230.66;;;-140.67;100.00
2294;BME280;1155;42.644;23.264;2023-05-23T02:07:47;60232.72;;;-140.67;100.00
2294;BME280;1155;42.644;23.264;2023-05-23T02:10:13;60240.91;;;-140.67;100.00
2294;BME280;1155;42.644;23.264;2023-05-23T02:12:40;60236.81;;;-140.67;100.00
2294;BME280;1155;42.644;23.264;2023-05-23T02:15:08;60216.31;;;-140.67;100.00
2294;BME280;1155;42.644;23.264;2023-05-23T02:17:35;60224.53;;;-140.67;100.00
2294;BME280;1155;42.644;23.264;2023-05-23T02:20:06;60236.81;;;-140.67;100.00
2294;BME280;1155;42.644;23.264;2023-05-23T02:22:33;60210.19;;;-140.67;100.00
2294;BME280;1155;42.644;23.264;2023-05-23T02:24:59;60247.03;;;-140.67;100.00
2294;BME280;1155;42.644;23.264;2023-05-23T02:27:26;60236.81;;;-140.67;100.00
2294;BME280;1155;42.644;23.264;2023-05-23T02:29:53;60232.72;;;-140.67;100.00
2294;BME280;1155;42.644;23.264;2023-05-23T02:32:20;60259.34;;;-140.67;100.00
2294;BME280;1155;42.644;23.264;2023-05-23T02:34:47;60245.00;;;-140.67;100.00
2294;BME280;1155;42.644;23.264;2023-05-23T02:37:16;60240.91;;;-140.67;100.00
2294;BME280;1155;42.644;23.264;2023-05-23T02:39:43;60247.03;;;-140.67;100.00
2294;BME280;1155;42.644;23.264;2023-05-23T02:42:09;60199.94;;;-140.67;100.00
2294;BME280;1155;42.644;23.264;2023-05-23T02:44:36;60218.38;;;-140.67;100.00
2294;BME280;1155;42.644;23.264;2023-05-23T02:47:03;60261.38;;;-140.67;100.00
2294;BME280;1155;42.644;23.264;2023-05-23T02:49:30;60232.72;;;-140.67;100.00
2294;BME280;1155;42.644;23.264;2023-05-23T02:51:57;60216.31;;;-140.67;100.00
2294;BME280;1155;42.644;23.264;2023-05-23T02:54:27;60216.31;;;-140.67;100.00
2294;BME280;1155;42.644;23.264;2023-05-23T02:56:54;60245.00;;;-140.67;100.00
2294;BME280;1155;42.644;23.264;2023-05-23T02:59:21;60240.91;;;-140.67;100.00
2294;BME280;1155;42.644;23.264;2023-05-23T03:01:48;60224.53;;;-140.67;100.00
2294;BME280;1155;42.644;23.264;2023-05-23T03:04:15;60236.81;;;-140.67;100.00
2294;BME280;1155;42.644;23.264;2023-05-23T03:06:42;60234.75;;;-140.67;100.00
2294;BME280;1155;42.644;23.264;2023-05-23T03:09:09;60251.13;;;-140.67;100.00
2294;BME280;1155;42.644;23.264;2023-05-23T03:11:37;60240.91;;;-140.67;100.00
2294;BME280;1155;42.644;23.264;2023-05-23T03:14:04;60240.91;;;-140.67;100.00
2294;BME280;1155;42.644;23.264;2023-05-23T03:16:31;60220.41;;;-140.67;100.00
2294;BME280;1155;42.644;23.264;2023-05-23T03:18:58;60220.41;;;-140.67;100.00
2294;BME280;1155;42.644;23.264;2023-05-23T03:21:25;60228.63;;;-140.67;100.00
2294;BME280;1155;42.644;23.264;2023-05-23T03:23:51;60232.72;;;-140.67;100.00
2294;BME280;1155;42.644;23.264;2023-05-23T03:26:18;60220.41;;;-140.67;100.00
2294;BME280;1155;42.644;23.264;2023-05-23T03:28:47;60232.72;;;-140.67;100.00
2294;BME280;1155;42.644;23.264;2023-05-23T03:31:16;60212.22;;;-140.67;100.00
2294;BME280;1155;42.644;23.264;2023-05-23T03:33:43;60253.19;;;-140.67;100.00
2294;BME280;1155;42.644;23.264;2023-05-23T03:36:10;60255.22;;;-140.67;100.00
2294;BME280;1155;42.644;23.264;2023-05-23T03:38:36;60261.38;;;-140.67;100.00
2294;BME280;1155;42.644;23.264;2023-05-23T03:41:03;60240.91;;;-140.67;100.00
2294;BME280;1155;42.644;23.264;2023-05-23T03:43:30;60255.22;;;-140.67;100.00
2294;BME280;1155;42.644;23.264;2023-05-23T03:45:59;60236.81;;;-140.67;100.00
2294;BME280;1155;42.644;23.264;2023-05-23T03:48:25;60249.09;;;-140.67;100.00
2294;BME280;1155;42.644;23.264;2023-05-23T03:50:54;60247.03;;;-140.67;100.00
2294;BME280;1155;42.644;23.264;2023-05-23T03:53:21;60236.81;;;-140.67;100.00
2294;BME280;1155;42.644;23.264;2023-05-23T03:55:47;60222.47;;;-140.67;100.00
2294;BME280;1155;42.644;23.264;2023-05-23T03:58:15;60234.75;;;-140.67;100.00
2294;BME280;1155;42.644;23.264;2023-05-23T04:00:41;60249.09;;;-140.67;100.00
2294;BME280;1155;42.644;23.264;2023-05-23T04:03:10;60245.00;;;-140.67;100.00
2294;BME280;1155;42.644;23.264;2023-05-23T04:05:38;60249.09;;;-140.67;100.00
2294;BME280;1155;42.644;23.264;2023-05-23T04:08:06;60224.53;;;-140.67;100.00
2294;BME280;1155;42.644;23.264;2023-05-23T04:10:33;60240.91;;;-140.67;100.00
2294;BME280;1155;42.644;23.264;2023-05-23T04:12:59;60242.94;;;-140.67;100.00
2294;BME280;1155;42.644;23.264;2023-05-23T04:15:27;60234.75;;;-140.67;100.00
2294;BME280;1155;42.644;23.264;2023-05-23T04:17:54;60255.22;;;-140.67;100.00
2294;BME280;1155;42.644;23.264;2023-05-23T04:20:23;60257.28;;;-140.67;100.00
2294;BME280;1155;42.644;23.264;2023-05-23T04:22:50;60236.81;;;-140.67;100.00
2294;BME280;1155;42.644;23.264;2023-05-23T04:25:17;60240.91;;;-140.67;100.00
2294;BME280;1155;42.644;23.264;2023-05-23T04:27:44;60253.19;;;-140.67;100.00
2294;BME280;1155;42.644;23.264;2023-05-23T04:30:12;60228.63;;;-140.67;100.00
2294;BME280;1155;42.644;23.264;2023-05-23T04:32:42;60208.13;;;-140.67;100.00
2294;BME280;1155;42.644;23.264;2023-05-23T04:35:09;60245.00;;;-140.67;100.00
2294;BME280;1155;42.644;23.264;2023-05-23T04:37:37;60236.81;;;-140.67;100.00
2294;BME280;1155;42.644;23.264;2023-05-23T04:40:05;60216.31;;;-140.67;100.00
2294;BME280;1155;42.644;23.264;2023-05-23T04:42:32;60220.41;;;-140.67;100.00
2294;BME280;1155;42.644;23.264;2023-05-23T04:44:59;60234.75;;;-140.67;100.00
2294;BME280;1155;42.644;23.264;2023-05-23T04:47:26;60236.81;;;-140.67;100.00
2294;BME280;1155;42.644;23.264;2023-05-23T04:49:59;60240.91;;;-140.67;100.00
2294;BME280;1155;42.644;23.264;2023-05-23T04:52:26;60216.31;;;-140.67;100.00
2294;BME280;1155;42.644;23.264;2023-05-23T04:54:56;60228.63;;;-140.67;100.00
2294;BME280;1155;42.644;23.264;2023-05-23T04:57:23;60257.28;;;-140.67;100.00
2294;BME280;1155;42.644;23.264;2023-05-23T04:59:50;60228.63;;;-140.67;100.00
2294;BME280;1155;42.644;23.264;2023-05-23T05:02:18;60234.75;;;-140.67;100.00
2294;BME280;1155;42.644;23.264;2023-05-23T05:04:45;60242.94;;;-140.67;100.00
2294;BME280;1155;42.644;23.264;2023-05-23T05:07:12;60240.91;;;-140.67;100.00
2294;BME280;1155;42.644;23.264;2023-05-23T05:09:38;60263.44;;;-140.67;100.00
2294;BME280;1155;42.644;23.264;2023-05-23T05:12:07;60249.09;;;-140.67;100.00
2294;BME280;1155;42.644;23.264;2023-05-23T05:14:34;60245.00;;;-140.67;100.00
2294;BME280;1155;42.644;23.264;2023-05-23T05:17:00;60253.19;;;-140.67;100.00
2294;BME280;1155;42.644;23.264;2023-05-23T05:19:28;60249.09;;;-140.67;100.00
2294;BME280;1155;42.644;23.264;2023-05-23T05:21:56;60238.84;;;-140.67;100.00
2294;BME280;1155;42.644;23.264;2023-05-23T05:24:24;60251.13;;;-140.67;100.00
2294;BME280;1155;42.644;23.264;2023-05-23T05:26:52;60234.75;;;-140.67;100.00
2294;BME280;1155;42.644;23.264;2023-05-23T05:29:21;60230.66;;;-140.67;100.00
2294;BME280;1155;42.644;23.264;2023-05-23T05:31:48;60240.91;;;-140.67;100.00
2294;BME280;1155;42.644;23.264;2023-05-23T05:34:15;60245.00;;;-140.67;100.00
2294;BME280;1155;42.644;23.264;2023-05-23T05:36:42;60267.53;;;-140.67;100.00
2294;BME280;1155;42.644;23.264;2023-05-23T05:39:12;60255.22;;;-140.67;100.00
2294;BME280;1155;42.644;23.264;2023-05-23T05:41:39;60249.09;;;-140.67;100.00
2294;BME280;1155;42.644;23.264;2023-05-23T05:44:07;60216.31;;;-140.67;100.00
2294;BME280;1155;42.644;23.264;2023-05-23T05:46:35;60249.09;;;-140.67;100.00
2294;BME280;1155;42.644;23.264;2023-05-23T05:49:02;60228.63;;;-140.67;100.00
2294;BME280;1155;42.644;23.264;2023-05-23T05:51:29;60236.81;;;-140.67;100.00
2294;BME280;1155;42.644;23.264;2023-05-23T05:53:56;60249.09;;;-140.67;100.00
2294;BME280;1155;42.644;23.264;2023-05-23T05:56:23;60228.63;;;-140.67;100.00
2294;BME280;1155;42.644;23.264;2023-05-23T05:58:50;60247.03;;;-140.67;100.00
2294;BME280;1155;42.644;23.264;2023-05-23T06:01:17;60259.34;;;-140.67;100.00
2294;BME280;1155;42.644;23.264;2023-05-23T06:03:45;60267.53;;;-140.67;100.00
2294;BME280;1155;42.644;23.264;2023-05-23T06:06:12;60269.56;;;-140.67;100.00
2294;BME280;1155;42.644;23.264;2023-05-23T06:08:41;60247.03;;;-140.67;100.00
2294;BME280;1155;42.644;23.264;2023-05-23T06:11:08;60245.00;;;-140.67;100.00
2294;BME280;1155;42.644;23.264;2023-05-23T06:13:36;60255.22;;;-140.67;100.00
2294;BME280;1155;42.644;23.264;2023-05-23T06:16:03;60257.28;;;-140.67;100.00
2294;BME280;1155;42.644;23.264;2023-05-23T06:18:31;60249.09;;;-140.67;100.00
2294;BME280;1155;42.644;23.264;2023-05-23T06:20:59;60236.81;;;-140.67;100.00
2294;BME280;1155;42.644;23.264;2023-05-23T06:23:26;60265.47;;;-140.67;100.00
2294;BME280;1155;42.644;23.264;2023-05-23T06:25:53;60261.38;;;-140.67;100.00
2294;BME280;1155;42.644;23.264;2023-05-23T06:28:19;60234.75;;;-140.67;100.00
2294;BME280;1155;42.644;23.264;2023-05-23T06:30:46;60245.00;;;-140.67;100.00
2294;BME280;1155;42.644;23.264;2023-05-23T06:33:13;60236.81;;;-140.67;100.00
2294;BME280;1155;42.644;23.264;2023-05-23T06:35:40;60257.28;;;-140.67;100.00
2294;BME280;1155;42.644;23.264;2023-05-23T06:38:09;60228.63;;;-140.67;100.00
2294;BME280;1155;42.644;23.264;2023-05-23T06:40:35;60257.28;;;-140.67;100.00
2294;BME280;1155;42.644;23.264;2023-05-23T06:43:02;60261.38;;;-140.67;100.00
2294;BME280;1155;42.644;23.264;2023-05-23T06:45:29;60290.03;;;-140.67;100.00
2294;BME280;1155;42.644;23.264;2023-05-23T06:47:56;60236.81;;;-140.67;100.00
2294;BME280;1155;42.644;23.264;2023-05-23T06:50:25;60269.56;;;-140.67;100.00
2294;BME280;1155;42.644;23.264;2023-05-23T06:52:52;60238.84;;;-140.67;100.00
2294;BME280;1155;42.644;23.264;2023-05-23T06:55:20;60240.91;;;-140.67;100.00
2294;BME280;1155;42.644;23.264;2023-05-23T06:57:47;60275.72;;;-140.67;100.00
2294;BME280;1155;42.644;23.264;2023-05-23T07:00:16;60269.56;;;-140.67;100.00
2294;BME280;1155;42.644;23.264;2023-05-23T07:02:43;60277.75;;;-140.67;100.00
2294;BME280;1155;42.644;23.264;2023-05-23T07:05:12;60279.81;;;-140.67;100.00
2294;BME280;1155;42.644;23.264;2023-05-23T07:07:39;60265.47;;;-140.67;100.00
2294;BME280;1155;42.644;23.264;2023-05-23T07:10:07;60249.09;;;-140.67;100.00
2294;BME280;1155;42.644;23.264;2023-05-23T07:12:35;60294.13;;;-140.67;100.00
2294;BME280;1155;42.644;23.264;2023-05-23T07:15:03;60249.09;;;-140.67;100.00
2294;BME280;1155;42.644;23.264;2023-05-23T07:17:30;60269.56;;;-140.67;100.00
2294;BME280;1155;42.644;23.264;2023-05-23T07:19:57;60281.84;;;-140.67;100.00
2294;BME280;1155;42.644;23.264;2023-05-23T07:22:24;60290.03;;;-140.67;100.00
2294;BME280;1155;42.644;23.264;2023-05-23T07:24:51;60265.47;;;-140.67;100.00
2294;BME280;1155;42.644;23.264;2023-05-23T07:27:18;60257.28;;;-140.67;100.00
2294;BME280;1155;42.644;23.264;2023-05-23T07:29:46;60281.84;;;-140.67;100.00
2294;BME280;1155;42.644;23.264;2023-05-23T07:32:13;60273.66;;;-140.67;100.00
2294;BME280;1155;42.644;23.264;2023-05-23T07:34:40;60269.56;;;-140.67;100.00
2294;BME280;1155;42.644;23.264;2023-05-23T07:37:07;60285.94;;;-140.67;100.00
2294;BME280;1155;42.644;23.264;2023-05-23T07:39:34;60267.53;;;-140.67;100.00
2294;BME280;1155;42.644;23.264;2023-05-23T07:42:00;60271.63;;;-140.67;100.00
2294;BME280;1155;42.644;23.264;2023-05-23T07:44:27;60271.63;;;-140.67;100.00
2294;BME280;1155;42.644;23.264;2023-05-23T07:46:56;60277.75;;;-140.67;100.00
2294;BME280;1155;42.644;23.264;2023-05-23T07:49:23;60292.09;;;-140.67;100.00
2294;BME280;1155;42.644;23.264;2023-05-23T07:51:49;60310.53;;;-140.67;100.00
2294;BME280;1155;42.644;23.264;2023-05-23T07:54:17;60281.84;;;-140.67;100.00
2294;BME280;1155;42.644;23.264;2023-05-23T07:56:44;60294.13;;;-140.67;100.00
2294;BME280;1155;42.644;23.264;2023-05-23T07:59:12;60298.25;;;-140.67;100.00
2294;BME280;1155;42.644;23.264;2023-05-23T08:01:39;60300.28;;;-140.67;100.00
2294;BME280;1155;42.644;23.264;2023-05-23T08:04:08;60236.81;;;-140.67;100.00
2294;BME280;1155;42.644;23.264;2023-05-23T08:06:35;60294.13;;;-140.67;100.00
2294;BME280;1155;42.644;23.264;2023-05-23T08:09:03;60298.25;;;-140.67;100.00
2294;BME280;1155;42.644;23.264;2023-05-23T08:11:44;60326.91;;;-140.67;100.00
2294;BME280;1155;42.644;23.264;2023-05-23T08:14:18;60298.25;;;-140.67;100.00
2294;BME280;1155;42.644;23.264;2023-05-23T08:17:01;60285.94;;;-140.67;100.00
2294;BME280;1155;42.644;23.264;2023-05-23T08:19:40;60318.72;;;-140.67;100.00
2294;BME280;1155;42.644;23.264;2023-05-23T08:22:15;60320.75;;;-140.67;100.00
2294;BME280;1155;42.644;23.264;2023-05-23T08:24:45;60302.34;;;-140.67;98.79
2294;BME280;1155;42.644;23.264;2023-05-23T08:27:16;60308.47;;;-140.67;96.75
2294;BME280;1155;42.644;23.264;2023-05-23T08:30:17;60333.06;;;-140.67;100.00
2294;BME280;1155;42.644;23.264;2023-05-23T08:32:52;60335.09;;;-140.67;88.86
2294;BME280;1155;42.644;23.264;2023-05-23T08:35:47;60318.72;;;-140.67;74.71
2294;BME280;1155;42.644;23.264;2023-05-23T08:38:30;60322.81;;;-140.67;98.79
2294;BME280;1155;42.644;23.264;2023-05-23T08:41:26;60367.88;;;-140.67;95.79
2294;BME280;1155;42.644;23.264;2023-05-23T08:44:05;60355.56;;;-140.67;100.00
2294;BME280;1155;42.644;23.264;2023-05-23T08:46:51;60363.78;;;-140.67;80.71
2294;BME280;1155;42.644;23.264;2023-05-23T08:49:35;60365.81;;;-140.67;74.96
2294;BME280;1155;42.644;23.264;2023-05-23T08:52:30;60339.19;;;-140.67;72.95
2294;BME280;1155;42.644;23.264;2023-05-23T08:55:18;60326.91;;;-140.67;58.69
2294;BME280;1155;42.644;23.264;2023-05-23T08:58:05;60365.81;;;-140.67;52.58
2294;BME280;1155;42.644;23.264;2023-05-23T09:00:45;60382.19;;;-140.67;51.03
2294;BME280;1155;42.644;23.264;2023-05-23T09:03:18;60351.47;;;-140.67;52.86
2294;BME280;1155;42.644;23.264;2023-05-23T09:05:54;60367.88;;;-140.67;59.34
2294;BME280;1155;42.644;23.264;2023-05-23T09:08:31;60371.97;;;-140.67;41.16
2294;BME280;1155;42.644;23.264;2023-05-23T09:11:03;60400.63;;;-140.67;43.99
2294;BME280;1155;42.644;23.264;2023-05-23T09:13:34;60380.16;;;-140.67;44.48
2294;BME280;1155;42.644;23.264;2023-05-23T09:16:03;60361.72;;;-140.67;36.84
2294;BME280;1155;42.644;23.264;2023-05-23T09:18:37;60367.88;;;-140.67;37.82
2294;BME280;1155;42.644;23.264;2023-05-23T09:21:11;60349.44;;;-140.67;38.59
2294;BME280;1155;42.644;23.264;2023-05-23T09:23:40;60367.88;;;-140.67;35.25
2294;BME280;1155;42.644;23.264;2023-05-23T09:26:11;60351.47;;;-140.67;40.97
2294;BME280;1155;42.644;23.264;2023-05-23T09:28:43;60400.63;;;-140.67;40.35
2294;BME280;1155;42.644;23.264;2023-05-23T09:31:18;60396.53;;;-140.67;31.87
2294;BME280;1155;42.644;23.264;2023-05-23T09:33:57;60374.00;;;-140.67;33.41
2294;BME280;1155;42.644;23.264;2023-05-23T09:36:33;60369.91;;;-140.67;32.60
2294;BME280;1155;42.644;23.264;2023-05-23T09:39:07;60398.59;;;-140.67;34.25
2294;BME280;1155;42.644;23.264;2023-05-23T09:41:54;60384.25;;;-140.67;32.43
2294;BME280;1155;42.644;23.264;2023-05-23T09:44:31;60347.38;;;-140.67;31.10
2294;BME280;1155;42.644;23.264;2023-05-23T09:47:17;60353.53;;;-140.67;34.02
2294;BME280;1155;42.644;23.264;2023-05-23T09:49:51;60376.06;;;-140.67;34.93
2294;BME280;1155;42.644;23.264;2023-05-23T09:52:45;60367.88;;;-140.67;33.81
2294;BME280;1155;42.644;23.264;2023-05-23T09:55:21;60363.78;;;-140.67;30.98
2294;BME280;1155;42.644;23.264;2023-05-23T09:58:09;60347.38;;;-140.67;30.64
2294;BME280;1155;42.644;23.264;2023-05-23T10:01:14;60380.16;;;-140.67;32.23
2294;BME280;1155;42.644;23.264;2023-05-23T10:07:06;60394.50;;;-140.67;30.60
2294;BME280;1155;42.644;23.264;2023-05-23T10:10:05;60390.38;;;-140.67;31.87
2294;BME280;1155;42.644;23.264;2023-05-23T10:12:51;60371.97;;;-140.67;27.95
2294;BME280;1155;42.644;23.264;2023-05-23T10:15:53;60386.28;;;-140.67;29.81
2294;BME280;1155;42.644;23.264;2023-05-23T10:19:10;60412.91;;;-140.67;30.47
2294;BME280;1155;42.644;23.264;2023-05-23T10:22:17;60404.72;;;-140.67;29.23
2294;BME280;1155;42.644;23.264;2023-05-23T10:25:12;60421.09;;;-140.67;27.95
2294;BME280;1155;42.644;23.264;2023-05-23T10:31:25;60429.31;;;-140.67;28.90
2294;BME280;1155;42.644;23.264;2023-05-23T10:34:15;60378.09;;;-140.67;27.47
2294;BME280;1155;42.644;23.264;2023-05-23T10:36:58;60388.34;;;-140.67;27.79
2294;BME280;1155;42.644;23.264;2023-05-23T10:39:41;60384.25;;;-140.67;27.95
2294;BME280;1155;42.644;23.264;2023-05-23T10:42:19;60414.97;;;-140.67;30.22
2294;BME280;1155;42.644;23.264;2023-05-23T10:44:51;60421.09;;;-140.67;29.37
2294;BME280;1155;42.644;23.264;2023-05-23T10:47:31;60429.31;;;-140.67;27.61
2294;BME280;1155;42.644;23.264;2023-05-23T10:53:25;60470.25;;;-140.67;28.01
2294;BME280;1155;42.644;23.264;2023-05-23T10:56:30;60443.63;;;-140.67;26.61
2294;BME280;1155;42.644;23.264;2023-05-23T10:59:33;60453.88;;;-140.67;27.58
2294;BME280;1155;42.644;23.264;2023-05-23T11:06:27;60484.59;;;-140.67;25.63
2294;BME280;1155;42.644;23.264;2023-05-23T11:12:19;60449.78;;;-140.67;25.97
2294;BME280;1155;42.644;23.264;2023-05-23T11:25:10;60496.88;;;-140.67;26.34
2294;BME280;1155;42.644;23.264;2023-05-23T11:28:04;60515.31;;;-140.67;25.42
2294;BME280;1155;42.644;23.264;2023-05-23T11:30:55;60515.31;;;-140.67;24.39
2294;BME280;1155;42.644;23.264;2023-05-23T11:36:58;60523.50;;;-140.67;22.72
2294;BME280;1155;42.644;23.264;2023-05-23T11:39:32;60539.88;;;-140.67;23.22
2294;BME280;1155;42.644;23.264;2023-05-23T11:42:03;60519.41;;;-140.67;24.30
2294;BME280;1155;42.644;23.264;2023-05-23T11:44:33;60482.53;;;-140.67;23.21
2294;BME280;1155;42.644;23.264;2023-05-23T11:47:05;60476.41;;;-140.67;23.25
2294;BME280;1155;42.644;23.264;2023-05-23T11:49:43;60472.31;;;-140.67;22.41
2294;BME280;1155;42.644;23.264;2023-05-23T11:52:25;60578.78;;;-140.67;22.58
2294;BME280;1155;42.644;23.264;2023-05-23T11:55:13;60636.13;;;-140.67;21.87
2294;BME280;1155;42.644;23.264;2023-05-23T11:57:43;60748.78;;;-140.67;19.83
2294;BME280;1155;42.644;23.264;2023-05-23T12:00:23;60709.88;;;-140.67;19.04
2294;BME280;1155;42.644;23.264;2023-05-23T12:03:09;60679.16;;;-140.67;19.70
2294;BME280;1155;42.644;23.264;2023-05-23T12:05:43;60673.00;;;-140.67;21.21
2294;BME280;1155;42.644;23.264;2023-05-23T12:08:29;60724.19;;;-140.67;19.80
2294;BME280;1155;42.644;23.264;2023-05-23T12:11:17;60791.78;;;-140.67;18.70
2294;BME280;1155;42.644;23.264;2023-05-23T12:13:56;60865.53;;;-140.67;17.01
2294;BME280;1155;42.644;23.264;2023-05-23T12:16:44;60810.22;;;-140.67;18.01
2294;BME280;1155;42.644;23.264;2023-05-23T12:19:26;60765.16;;;-140.67;17.90
2294;BME280;1155;42.644;23.264;2023-05-23T12:22:05;60771.31;;;-140.67;18.39
2294;BME280;1155;42.644;23.264;2023-05-23T12:24:53;60818.41;;;-140.67;18.09
2294;BME280;1155;42.644;23.264;2023-05-23T12:27:49;60845.03;;;-140.67;17.46
2294;BME280;1155;42.644;23.264;2023-05-23T12:30:58;60900.34;;;-140.67;17.75
2294;BME280;1155;42.644;23.264;2023-05-23T12:33:51;60888.03;;;-140.67;17.18
2294;BME280;1155;42.644;23.264;2023-05-23T12:36:41;60947.44;;;-140.67;16.53
2294;BME280;1155;42.644;23.264;2023-05-23T12:39:42;60892.16;;;-140.67;16.63
2294;BME280;1155;42.644;23.264;2023-05-23T12:42:43;60783.59;;;-140.67;17.34
2294;BME280;1155;42.644;23.264;2023-05-23T12:45:42;60863.47;;;-140.67;17.22
2294;BME280;1155;42.644;23.264;2023-05-23T12:48:23;60726.25;;;-140.67;18.79
2294;BME280;1155;42.644;23.264;2023-05-23T12:50:58;60699.63;;;-140.67;18.90
2294;BME280;1155;42.644;23.264;2023-05-23T12:53:31;60711.91;;;-140.67;18.88
2294;BME280;1155;42.644;23.264;2023-05-23T12:56:03;60836.84;;;-140.67;17.94
2294;BME280;1155;42.644;23.264;2023-05-23T12:58:47;60822.50;;;-140.67;17.44
2294;BME280;1155;42.644;23.264;2023-05-23T13:01:32;60830.69;;;-140.67;16.39
2294;BME280;1155;42.644;23.264;2023-05-23T13:04:26;60875.75;;;-140.67;17.09
2294;BME280;1155;42.644;23.264;2023-05-23T13:07:08;60994.56;;;-140.67;16.37
2294;BME280;1155;42.644;23.264;2023-05-23T13:09:53;60974.06;;;-140.67;16.34
2294;BME280;1155;42.644;23.264;2023-05-23T13:12:56;60775.41;;;-140.67;17.35
2294;BME280;1155;42.644;23.264;2023-05-23T13:15:49;60756.97;;;-140.67;17.56
2294;BME280;1155;42.644;23.264;2023-05-23T13:18:35;60810.22;;;-140.67;17.78
2294;BME280;1155;42.644;23.264;2023-05-23T13:24:06;60898.28;;;-140.67;16.64
2294;BME280;1155;42.644;23.264;2023-05-23T13:27:09;60904.44;;;-140.67;14.90
2294;BME280;1155;42.644;23.264;2023-05-23T13:29:54;60922.88;;;-140.67;15.76
2294;BME280;1155;42.644;23.264;2023-05-23T13:32:53;60787.69;;;-140.67;16.14
2294;BME280;1155;42.644;23.264;2023-05-23T13:35:37;60802.03;;;-140.67;17.17
2294;BME280;1155;42.644;23.264;2023-05-23T13:38:22;60830.69;;;-140.67;15.98
2294;BME280;1155;42.644;23.264;2023-05-23T13:41:21;60941.31;;;-140.67;15.67
2294;BME280;1155;42.644;23.264;2023-05-23T13:43:59;61023.22;;;-140.67;13.87
2294;BME280;1155;42.644;23.264;2023-05-23T13:50:44;61113.34;;;-140.67;14.11
2294;BME280;1155;42.644;23.264;2023-05-23T13:53:46;61064.19;;;-140.67;13.37
2294;BME280;1155;42.644;23.264;2023-05-23T13:56:50;61088.78;;;-140.67;13.89
2294;BME280;1155;42.644;23.264;2023-05-23T13:59:24;60988.41;;;-140.67;14.58
2294;BME280;1155;42.644;23.264;2023-05-23T14:05:40;60658.66;;;-140.67;16.36
2294;BME280;1155;42.644;23.264;2023-05-23T14:08:32;60513.25;;;-140.67;18.39